createdAt,value
2023-01-23T00:02:15.282Z,3.47
2023-01-23T00:05:18.769Z,9.45
2023-01-23T00:08:22.415Z,2.25
2023-01-23T00:11:26.895Z,2.42
2023-01-23T00:14:30.402Z,2.90
2023-01-23T00:17:35.282Z,6.05
2023-01-23T00:20:39.212Z,2.05
2023-01-23T00:23:43.907Z,5.22
2023-01-23T00:26:47.425Z,4.85
2023-01-23T00:29:53.853Z,1.27
2023-01-23T00:32:58.712Z,2.55
2023-01-23T00:36:03.123Z,3.25
2023-01-23T00:39:09.313Z,7.43
2023-01-23T00:42:12.832Z,2.75
2023-01-23T00:45:16.934Z,1.83
2023-01-23T00:48:21.962Z,2.10
2023-01-23T00:51:25.754Z,2.53
2023-01-23T00:54:29.426Z,2.55
2023-01-23T00:57:32.767Z,3.33
2023-01-23T01:00:36.525Z,3.47
2023-01-23T01:03:41.470Z,1.58
2023-01-23T01:06:45.038Z,2.13
2023-01-23T01:09:48.461Z,6.10
2023-01-23T01:12:53.153Z,2.30
2023-01-23T01:16:01.659Z,2.90
2023-01-23T01:19:06.618Z,2.63
2023-01-23T01:22:10.669Z,2.53
2023-01-23T01:25:14.272Z,1.58
2023-01-23T01:28:17.687Z,4.07
2023-01-23T01:31:21.157Z,2.15
2023-01-23T01:34:25.954Z,2.15
2023-01-23T01:37:29.475Z,2.65
2023-01-23T01:40:36.901Z,2.35
2023-01-23T01:43:40.708Z,5.40
2023-01-23T01:46:45.723Z,2.03
2023-01-23T01:49:51.917Z,3.97
2023-01-23T01:52:55.877Z,2.03
2023-01-23T01:55:59.573Z,1.85
2023-01-23T01:59:03.557Z,2.75
2023-01-23T02:02:12.293Z,4.95
2023-01-23T02:05:18.616Z,1.55
2023-01-23T02:08:24.418Z,3.58
2023-01-23T02:11:28.273Z,4.15
2023-01-23T02:14:32.064Z,4.43
2023-01-23T02:17:36.598Z,7.97
2023-01-23T02:20:41.587Z,2.42
2023-01-23T02:23:49.170Z,1.77
2023-01-23T02:26:59.018Z,1.65
2023-01-23T02:30:03.213Z,3.58
2023-01-23T02:33:12.655Z,1.08
2023-01-23T02:36:16.153Z,3.53
2023-01-23T02:39:20.733Z,2.15
2023-01-23T02:42:31.243Z,3.30
2023-01-23T02:45:36.967Z,1.13
2023-01-23T02:48:40.979Z,4.05
2023-01-23T02:51:44.399Z,1.73
2023-01-23T02:54:47.741Z,3.50
2023-01-23T02:57:53.611Z,3.03
2023-01-23T03:00:56.205Z,1.48
2023-01-23T03:04:03.762Z,7.32
2023-01-23T03:07:08.865Z,2.15
2023-01-23T03:10:13.093Z,5.75
2023-01-23T03:13:21.161Z,3.05
2023-01-23T03:16:24.850Z,7.45
2023-01-23T03:19:28.428Z,2.78
2023-01-23T03:22:32.136Z,1.65
2023-01-23T03:25:36.844Z,2.08
2023-01-23T03:29:00.442Z,2.88
2023-01-23T03:32:04.379Z,4.38
2023-01-23T03:35:10.129Z,4.45
2023-01-23T03:38:17.969Z,1.80
2023-01-23T03:41:26.464Z,1.58
2023-01-23T03:44:35.502Z,2.15
2023-01-23T03:47:39.928Z,4.88
2023-01-23T03:50:43.725Z,2.08
2023-01-23T03:53:47.338Z,4.25
2023-01-23T03:56:52.708Z,3.92
2023-01-23T04:00:21.276Z,2.70
2023-01-23T04:03:32.552Z,1.95
2023-01-23T04:06:36.047Z,3.17
2023-01-23T04:09:39.651Z,1.85
2023-01-23T04:12:47.026Z,3.97
2023-01-23T04:15:54.789Z,2.95
2023-01-23T04:18:58.537Z,4.82
2023-01-23T04:22:02.896Z,2.90
2023-01-23T04:25:11.889Z,2.58
2023-01-23T04:28:16.395Z,5.55
2023-01-23T04:31:22.715Z,2.67
2023-01-23T04:34:26.654Z,3.20
2023-01-23T04:37:31.117Z,2.58
2023-01-23T04:40:36.113Z,3.17
2023-01-23T04:43:40.696Z,2.65
2023-01-23T04:46:49.786Z,6.18
2023-01-23T04:49:56.020Z,3.13
2023-01-23T04:52:59.918Z,2.20
2023-01-23T04:56:04.043Z,3.75
2023-01-23T04:59:07.557Z,2.05
2023-01-23T05:02:13.836Z,2.05
2023-01-23T05:05:21.021Z,3.65
2023-01-23T05:08:26.647Z,3.33
2023-01-23T05:11:48.813Z,2.08
2023-01-23T05:14:52.976Z,3.08
2023-01-23T05:17:57.751Z,3.92
2023-01-23T05:21:01.341Z,2.65
2023-01-23T05:24:04.916Z,2.88
2023-01-23T05:27:08.482Z,3.95
2023-01-23T05:30:15.740Z,2.65
2023-01-23T05:33:22.787Z,2.10
2023-01-23T05:36:26.322Z,2.95
2023-01-23T05:39:29.973Z,2.63
2023-01-23T05:42:33.537Z,5.68
2023-01-23T05:45:48.980Z,3.67
2023-01-23T05:49:04.835Z,3.05
2023-01-23T05:52:09.440Z,3.53
2023-01-23T05:55:14.277Z,6.60
2023-01-23T05:58:18.331Z,3.03
2023-01-23T06:01:40.874Z,5.80
2023-01-23T06:04:49.942Z,2.92
2023-01-23T06:08:09.288Z,2.42
2023-01-23T06:11:15.089Z,5.35
2023-01-23T06:14:26.060Z,2.25
2023-01-23T06:17:31.745Z,2.22
2023-01-23T06:20:41.611Z,2.58
2023-01-23T06:23:50.429Z,3.22
2023-01-23T06:26:59.349Z,3.10
2023-01-23T06:30:04.151Z,3.90
2023-01-23T06:33:13.567Z,5.20
2023-01-23T06:36:26.343Z,3.55
2023-01-23T06:39:34.171Z,3.22
2023-01-23T06:42:48.577Z,3.13
2023-01-23T06:45:55.594Z,3.53
2023-01-23T06:49:05.877Z,3.15
2023-01-23T06:52:13.843Z,2.72
2023-01-23T06:55:18.170Z,3.40
2023-01-23T06:58:24.762Z,2.30
2023-01-23T07:01:29.880Z,2.88
2023-01-23T07:04:57.838Z,2.63
2023-01-23T07:08:06.928Z,4.32
2023-01-23T07:11:13.705Z,4.53
2023-01-23T07:14:17.415Z,3.97
2023-01-23T07:17:34.615Z,4.97
2023-01-23T07:20:38.359Z,5.53
2023-01-23T07:23:55.879Z,4.28
2023-01-23T07:27:03.657Z,6.63
2023-01-23T07:30:19.179Z,5.80
2023-01-23T07:33:22.861Z,6.25
2023-01-23T07:40:26.224Z,2.97
2023-01-23T07:43:37.929Z,3.90
2023-01-23T07:55:11.027Z,4.10
2023-01-23T07:58:18.057Z,6.18
2023-01-23T08:01:23.379Z,7.22
2023-01-23T08:04:33.538Z,5.72
2023-01-23T08:07:46.766Z,4.68
2023-01-23T08:10:57.812Z,6.95
2023-01-23T08:14:05.997Z,10.32
2023-01-23T08:17:47.790Z,7.28
2023-01-23T08:21:00.627Z,8.90
2023-01-23T08:24:15.157Z,8.85
2023-01-23T08:27:31.126Z,5.55
2023-01-23T08:30:37.429Z,5.78
2023-01-23T08:33:46.088Z,4.60
2023-01-23T08:36:52.469Z,7.45
2023-01-23T08:40:35.783Z,7.25
2023-01-23T08:43:51.734Z,9.35
2023-01-23T08:47:26.019Z,5.43
2023-01-23T08:51:03.114Z,8.13
2023-01-23T08:54:20.237Z,72.63
2023-01-23T08:57:33.975Z,9.82
2023-01-23T09:00:47.294Z,12.45
2023-01-23T09:07:29.969Z,8.88
2023-01-23T09:10:42.085Z,4.05
2023-01-23T09:14:03.664Z,12.77
2023-01-23T09:17:15.826Z,4.07
2023-01-23T09:20:28.410Z,5.40
2023-01-23T09:24:16.165Z,6.22
2023-01-23T09:27:27.372Z,7.93
2023-01-23T09:30:34.326Z,5.72
2023-01-23T09:33:50.702Z,7.90
2023-01-23T09:37:24.335Z,8.57
2023-01-23T09:40:40.492Z,7.57
2023-01-23T09:43:52.722Z,7.45
2023-01-23T09:47:10.278Z,6.00
2023-01-23T09:50:22.906Z,5.85
2023-01-23T09:53:43.987Z,7.95
2023-01-23T09:56:58.466Z,8.05
2023-01-23T10:00:11.014Z,8.00
2023-01-23T10:04:08.557Z,9.30
2023-01-23T10:07:19.394Z,8.63
2023-01-23T10:11:00.411Z,12.43
2023-01-23T10:14:23.299Z,10.90
2023-01-23T10:17:44.450Z,10.85
2023-01-23T10:20:59.165Z,9.60
2023-01-23T10:24:23.867Z,8.13
2023-01-23T10:27:35.570Z,10.40
2023-01-23T10:30:45.277Z,10.18
2023-01-23T10:33:57.082Z,10.50
2023-01-23T10:37:12.363Z,13.38
2023-01-23T10:40:37.984Z,9.77
2023-01-23T10:43:46.154Z,9.32
2023-01-23T10:47:01.651Z,9.93
2023-01-23T10:50:10.114Z,15.52
2023-01-23T10:53:20.852Z,7.80
2023-01-23T10:56:27.043Z,9.13
2023-01-23T10:59:36.394Z,11.30
2023-01-23T11:02:41.490Z,9.77
2023-01-23T11:05:53.045Z,9.65
2023-01-23T11:08:58.621Z,11.32
2023-01-23T11:12:03.217Z,12.30
2023-01-23T11:15:13.820Z,12.50
2023-01-23T11:18:30.050Z,9.93
2023-01-23T11:21:35.255Z,9.23
2023-01-23T11:34:09.378Z,8.70
2023-01-23T11:40:49.261Z,12.90
2023-01-23T11:44:21.096Z,8.52
2023-01-23T11:59:20.210Z,11.60
2023-01-23T12:10:06.949Z,10.57
2023-01-23T12:13:38.490Z,9.45
2023-01-23T12:20:35.931Z,14.32
2023-01-23T12:24:26.031Z,10.80
2023-01-23T12:38:04.856Z,12.57
2023-01-23T12:47:00.337Z,10.82
2023-01-23T12:50:10.641Z,14.38
2023-01-23T12:53:43.665Z,18.42
2023-01-23T13:13:50.433Z,38.05
2023-01-23T13:17:06.259Z,11.77
2023-01-23T13:24:54.206Z,60.05
2023-01-23T13:29:14.877Z,12.40
2023-01-23T13:33:17.964Z,15.73
2023-01-23T14:20:35.262Z,15.23
2023-01-23T14:23:46.117Z,29.55
2023-01-23T14:27:54.624Z,54.65
2023-01-23T14:31:23.272Z,48.60
2023-01-23T14:34:29.424Z,24.00
2023-01-23T14:41:36.554Z,30.98
2023-01-23T14:44:47.700Z,21.73
2023-01-23T14:48:05.643Z,14.18
2023-01-23T14:51:38.075Z,41.33
2023-01-23T14:55:32.949Z,18.60
2023-01-23T14:59:16.753Z,29.08
2023-01-23T15:11:06.964Z,85.05
2023-01-23T15:14:35.591Z,34.63
2023-01-23T15:18:31.297Z,28.88
2023-01-23T15:21:52.990Z,13.57
2023-01-23T15:43:02.311Z,20.98
2023-01-23T15:46:07.098Z,18.90
2023-01-23T15:54:32.954Z,25.98
2023-01-23T15:57:36.409Z,21.17
2023-01-23T16:00:40.399Z,32.92
2023-01-23T16:03:46.241Z,20.73
2023-01-23T16:06:49.877Z,15.32
2023-01-23T16:09:56.375Z,34.03
2023-01-23T16:13:00.465Z,24.13
2023-01-23T16:16:04.043Z,26.05
2023-01-23T16:19:09.969Z,50.53
2023-01-23T16:22:15.367Z,20.25
2023-01-23T16:25:21.373Z,23.77
2023-01-23T16:28:26.468Z,24.02
2023-01-23T16:31:30.281Z,15.35
2023-01-23T16:34:35.301Z,20.85
2023-01-23T16:37:38.970Z,15.48
2023-01-23T16:40:42.379Z,21.48
2023-01-23T16:43:46.328Z,17.40
2023-01-23T16:46:50.607Z,47.80
2023-01-23T16:49:56.002Z,33.47
2023-01-23T16:53:02.065Z,17.15
2023-01-23T16:56:06.088Z,17.55
2023-01-23T16:59:13.203Z,26.25
2023-01-23T17:02:19.490Z,15.23
2023-01-23T17:05:24.506Z,79.68
2023-01-23T17:08:28.290Z,33.38
2023-01-23T17:11:34.521Z,56.03
2023-01-23T17:14:38.319Z,26.58
2023-01-23T17:17:41.698Z,22.75
2023-01-23T17:20:46.573Z,21.40
2023-01-23T17:24:24.769Z,17.25
2023-01-23T17:27:44.307Z,17.33
2023-01-23T17:31:14.171Z,18.52
2023-01-23T17:34:28.387Z,15.30
2023-01-23T17:37:37.478Z,13.60
2023-01-23T17:40:43.585Z,16.95
2023-01-23T17:43:48.405Z,20.70
2023-01-23T17:46:55.096Z,20.60
2023-01-23T17:50:24.389Z,21.42
2023-01-23T17:53:38.952Z,16.40
2023-01-23T17:56:45.771Z,13.38
2023-01-23T17:59:55.633Z,18.13
2023-01-23T18:03:04.478Z,16.75
2023-01-23T18:06:18.847Z,14.80
2023-01-23T18:09:36.347Z,19.10
2023-01-23T18:12:43.283Z,13.93
2023-01-23T18:16:04.902Z,15.05
2023-01-23T18:19:18.969Z,12.25
2023-01-23T18:22:23.125Z,26.90
2023-01-23T18:25:30.985Z,15.82
2023-01-23T18:28:39.250Z,16.90
2023-01-23T18:31:48.325Z,24.45
2023-01-23T18:34:54.648Z,12.90
2023-01-23T18:38:04.391Z,11.75
2023-01-23T18:41:28.403Z,14.35
2023-01-23T18:44:44.173Z,16.85
2023-01-23T18:48:16.318Z,23.15
2023-01-23T18:52:02.235Z,22.10
2023-01-23T18:59:10.346Z,20.25
2023-01-23T19:02:31.486Z,21.58
2023-01-23T19:05:45.797Z,12.52
2023-01-23T19:08:56.109Z,17.05
2023-01-23T19:12:24.833Z,17.38
2023-01-23T19:15:50.432Z,21.15
2023-01-23T19:19:14.140Z,17.67
2023-01-23T19:22:20.898Z,16.92
2023-01-23T19:25:28.917Z,21.00
2023-01-23T19:28:38.424Z,19.48
2023-01-23T19:32:07.089Z,14.85
2023-01-23T19:35:15.118Z,25.83
2023-01-23T19:38:24.846Z,19.08
2023-01-23T19:41:36.159Z,22.13
2023-01-23T19:44:43.593Z,14.93
2023-01-23T19:47:55.593Z,21.95
2023-01-23T19:51:04.689Z,21.38
2023-01-23T19:54:26.172Z,17.60
2023-01-23T19:57:53.881Z,20.42
2023-01-23T20:01:01.370Z,20.08
2023-01-23T20:04:10.475Z,18.83
2023-01-23T20:07:14.533Z,18.17
2023-01-23T20:10:18.614Z,23.63
2023-01-23T20:13:22.351Z,29.55
2023-01-23T20:16:26.534Z,27.05
2023-01-23T20:19:33.813Z,28.02
2023-01-23T20:22:50.185Z,23.52
2023-01-23T20:26:02.786Z,17.98
2023-01-23T20:29:23.537Z,22.02
2023-01-23T20:32:36.397Z,15.90
2023-01-23T20:35:47.499Z,18.73
2023-01-23T20:39:00.475Z,19.15
2023-01-23T20:42:23.988Z,22.73
2023-01-23T20:45:40.160Z,19.75
2023-01-23T20:48:49.607Z,22.50
2023-01-23T20:52:33.630Z,21.17
2023-01-23T20:55:51.899Z,18.02
2023-01-23T20:59:16.594Z,23.00
2023-01-23T21:02:35.020Z,18.23
2023-01-23T21:05:38.766Z,22.00
2023-01-23T21:09:03.009Z,17.35
2023-01-23T21:12:22.234Z,11.65
2023-01-23T21:15:28.422Z,18.88
2023-01-23T21:18:40.470Z,17.27
2023-01-23T21:21:48.383Z,22.73
2023-01-23T21:24:55.567Z,21.35
2023-01-23T21:28:01.560Z,21.48
2023-01-23T21:31:09.770Z,18.02
2023-01-23T21:34:17.202Z,22.05
2023-01-23T21:37:24.464Z,23.63
2023-01-23T21:40:37.987Z,16.77
2023-01-23T21:43:48.747Z,16.70
2023-01-23T21:46:54.265Z,17.77
2023-01-23T21:50:00.587Z,19.48
2023-01-23T21:53:21.005Z,17.67
2023-01-23T21:56:52.660Z,18.17
2023-01-23T22:00:38.199Z,16.30
2023-01-23T22:03:56.790Z,19.88
2023-01-23T22:07:21.318Z,18.17
2023-01-23T22:10:43.791Z,20.98
2023-01-23T22:17:25.532Z,16.33
2023-01-23T22:20:36.452Z,18.52
2023-01-23T22:23:56.988Z,20.10
2023-01-23T22:27:05.197Z,13.23
2023-01-23T22:30:14.247Z,16.55
2023-01-23T22:36:57.568Z,13.60
2023-01-23T22:43:50.414Z,13.70
2023-01-23T22:47:10.113Z,16.73
2023-01-23T22:50:50.523Z,14.68
2023-01-23T22:54:01.110Z,16.73
2023-01-23T22:57:24.301Z,13.45
2023-01-23T23:05:10.247Z,13.88
2023-01-23T23:08:21.876Z,13.65
2023-01-23T23:11:41.710Z,13.82
2023-01-23T23:14:45.742Z,15.05
2023-01-23T23:17:51.323Z,14.60
2023-01-23T23:21:06.648Z,15.98
2023-01-23T23:24:20.042Z,15.55
2023-01-23T23:27:23.535Z,17.88
2023-01-23T23:30:30.567Z,21.25
2023-01-23T23:33:35.647Z,19.50
2023-01-23T23:36:47.641Z,20.00
2023-01-23T23:39:53.452Z,14.93
2023-01-23T23:43:02.701Z,12.98
2023-01-23T23:46:10.338Z,20.13
2023-01-23T23:49:17.084Z,16.80
2023-01-23T23:52:24.952Z,14.63
2023-01-23T23:55:34.577Z,14.23
2023-01-23T23:58:47.858Z,13.15
